sensor_id;sensor_type;location;lat;lon;timestamp;P1;durP1;ratioP1;P2;durP2;ratioP2
76357;SDS011;65185;21.060;105.826;2023-07-13T00:00:36;37.03;;;22.90;;
76357;SDS011;65185;21.060;105.826;2023-07-13T00:03:03;43.45;;;23.20;;
76357;SDS011;65185;21.060;105.826;2023-07-13T00:05:30;41.55;;;23.15;;
76357;SDS011;65185;21.060;105.826;2023-07-13T00:07:57;40.72;;;25.45;;
76357;SDS011;65185;21.060;105.826;2023-07-13T00:10:23;44.10;;;23.77;;
76357;SDS011;65185;21.060;105.826;2023-07-13T00:12:51;37.55;;;22.73;;
76357;SDS011;65185;21.060;105.826;2023-07-13T00:15:21;39.50;;;23.63;;
76357;SDS011;65185;21.060;105.826;2023-07-13T00:17:51;39.65;;;22.85;;
76357;SDS011;65185;21.060;105.826;2023-07-13T00:20:20;37.72;;;23.50;;
76357;SDS011;65185;21.060;105.826;2023-07-13T00:22:48;34.83;;;22.50;;
76357;SDS011;65185;21.060;105.826;2023-07-13T00:25:15;36.65;;;22.58;;
76357;SDS011;65185;21.060;105.826;2023-07-13T00:27:42;38.80;;;22.88;;
76357;SDS011;65185;21.060;105.826;2023-07-13T00:30:09;41.30;;;22.80;;
76357;SDS011;65185;21.060;105.826;2023-07-13T00:32:37;40.78;;;24.08;;
76357;SDS011;65185;21.060;105.826;2023-07-13T00:35:03;35.42;;;22.25;;
76357;SDS011;65185;21.060;105.826;2023-07-13T00:37:30;36.17;;;22.10;;
76357;SDS011;65185;21.060;105.826;2023-07-13T00:39:57;35.40;;;21.52;;
76357;SDS011;65185;21.060;105.826;2023-07-13T00:42:24;34.78;;;22.77;;
76357;SDS011;65185;21.060;105.826;2023-07-13T00:47:38;37.30;;;22.85;;
76357;SDS011;65185;21.060;105.826;2023-07-13T00:50:06;39.50;;;22.60;;
76357;SDS011;65185;21.060;105.826;2023-07-13T00:52:36;38.22;;;21.33;;
76357;SDS011;65185;21.060;105.826;2023-07-13T00:55:06;34.35;;;21.55;;
76357;SDS011;65185;21.060;105.826;2023-07-13T00:57:34;36.45;;;22.02;;
76357;SDS011;65185;21.060;105.826;2023-07-13T01:00:03;38.85;;;22.70;;
76357;SDS011;65185;21.060;105.826;2023-07-13T01:02:32;41.55;;;24.42;;
76357;SDS011;65185;21.060;105.826;2023-07-13T01:04:59;40.97;;;23.92;;
76357;SDS011;65185;21.060;105.826;2023-07-13T01:07:27;38.33;;;22.08;;
76357;SDS011;65185;21.060;105.826;2023-07-13T01:09:53;36.53;;;20.83;;
76357;SDS011;65185;21.060;105.826;2023-07-13T01:12:20;46.00;;;26.38;;
76357;SDS011;65185;21.060;105.826;2023-07-13T01:14:46;45.22;;;26.05;;
76357;SDS011;65185;21.060;105.826;2023-07-13T01:17:12;37.95;;;22.25;;
76357;SDS011;65185;21.060;105.826;2023-07-13T01:19:44;37.38;;;21.98;;
76357;SDS011;65185;21.060;105.826;2023-07-13T01:22:13;39.22;;;24.52;;
76357;SDS011;65185;21.060;105.826;2023-07-13T01:24:45;35.35;;;22.42;;
76357;SDS011;65185;21.060;105.826;2023-07-13T01:27:13;39.90;;;22.77;;
76357;SDS011;65185;21.060;105.826;2023-07-13T01:32:09;35.03;;;20.90;;
76357;SDS011;65185;21.060;105.826;2023-07-13T01:34:38;43.65;;;24.52;;
76357;SDS011;65185;21.060;105.826;2023-07-13T01:37:08;50.78;;;25.75;;
76357;SDS011;65185;21.060;105.826;2023-07-13T01:39:35;42.55;;;24.33;;
76357;SDS011;65185;21.060;105.826;2023-07-13T01:42:03;35.13;;;21.90;;
76357;SDS011;65185;21.060;105.826;2023-07-13T01:44:29;36.95;;;21.80;;
76357;SDS011;65185;21.060;105.826;2023-07-13T01:46:56;41.65;;;24.45;;
76357;SDS011;65185;21.060;105.826;2023-07-13T01:49:23;53.40;;;29.80;;
76357;SDS011;65185;21.060;105.826;2023-07-13T01:51:49;49.67;;;28.13;;
76357;SDS011;65185;21.060;105.826;2023-07-13T01:54:16;44.35;;;25.20;;
76357;SDS011;65185;21.060;105.826;2023-07-13T01:56:42;38.80;;;23.75;;
76357;SDS011;65185;21.060;105.826;2023-07-13T01:59:09;36.30;;;22.00;;
76357;SDS011;65185;21.060;105.826;2023-07-13T02:01:35;38.33;;;21.52;;
76357;SDS011;65185;21.060;105.826;2023-07-13T02:04:02;43.88;;;24.85;;
76357;SDS011;65185;21.060;105.826;2023-07-13T02:06:29;37.83;;;21.85;;
76357;SDS011;65185;21.060;105.826;2023-07-13T02:08:55;35.88;;;21.13;;
76357;SDS011;65185;21.060;105.826;2023-07-13T02:11:22;38.88;;;25.33;;
76357;SDS011;65185;21.060;105.826;2023-07-13T02:13:48;35.47;;;21.13;;
76357;SDS011;65185;21.060;105.826;2023-07-13T02:16:15;35.45;;;22.45;;
76357;SDS011;65185;21.060;105.826;2023-07-13T02:18:41;42.60;;;23.90;;
76357;SDS011;65185;21.060;105.826;2023-07-13T02:21:07;39.85;;;23.42;;
76357;SDS011;65185;21.060;105.826;2023-07-13T02:23:34;36.10;;;22.20;;
76357;SDS011;65185;21.060;105.826;2023-07-13T02:26:01;45.17;;;25.63;;
76357;SDS011;65185;21.060;105.826;2023-07-13T02:28:29;36.67;;;22.02;;
76357;SDS011;65185;21.060;105.826;2023-07-13T02:30:55;32.42;;;20.08;;
76357;SDS011;65185;21.060;105.826;2023-07-13T02:33:34;32.00;;;19.48;;
76357;SDS011;65185;21.060;105.826;2023-07-13T02:36:00;37.95;;;23.55;;
76357;SDS011;65185;21.060;105.826;2023-07-13T02:38:27;30.23;;;19.50;;
76357;SDS011;65185;21.060;105.826;2023-07-13T02:40:53;37.30;;;21.98;;
76357;SDS011;65185;21.060;105.826;2023-07-13T02:43:20;35.83;;;20.83;;
76357;SDS011;65185;21.060;105.826;2023-07-13T02:45:47;33.08;;;18.48;;
76357;SDS011;65185;21.060;105.826;2023-07-13T02:48:14;25.05;;;16.05;;
76357;SDS011;65185;21.060;105.826;2023-07-13T02:50:40;28.08;;;17.65;;
76357;SDS011;65185;21.060;105.826;2023-07-13T02:53:07;42.15;;;22.27;;
76357;SDS011;65185;21.060;105.826;2023-07-13T02:55:33;32.75;;;19.02;;
76357;SDS011;65185;21.060;105.826;2023-07-13T02:58:00;32.25;;;18.10;;
76357;SDS011;65185;21.060;105.826;2023-07-13T03:00:26;36.15;;;21.30;;
76357;SDS011;65185;21.060;105.826;2023-07-13T03:02:53;27.75;;;17.38;;
76357;SDS011;65185;21.060;105.826;2023-07-13T03:05:23;31.60;;;17.83;;
76357;SDS011;65185;21.060;105.826;2023-07-13T03:07:49;33.97;;;20.45;;
76357;SDS011;65185;21.060;105.826;2023-07-13T03:10:16;32.92;;;16.80;;
76357;SDS011;65185;21.060;105.826;2023-07-13T03:12:42;29.58;;;15.35;;
76357;SDS011;65185;21.060;105.826;2023-07-13T03:15:09;27.40;;;15.32;;
76357;SDS011;65185;21.060;105.826;2023-07-13T03:17:35;37.15;;;18.52;;
76357;SDS011;65185;21.060;105.826;2023-07-13T03:20:02;24.60;;;15.93;;
76357;SDS011;65185;21.060;105.826;2023-07-13T03:22:28;32.83;;;17.35;;
76357;SDS011;65185;21.060;105.826;2023-07-13T03:24:55;30.85;;;17.08;;
76357;SDS011;65185;21.060;105.826;2023-07-13T03:27:21;27.98;;;15.40;;
76357;SDS011;65185;21.060;105.826;2023-07-13T03:29:48;28.33;;;17.17;;
76357;SDS011;65185;21.060;105.826;2023-07-13T03:32:14;27.08;;;15.35;;
76357;SDS011;65185;21.060;105.826;2023-07-13T03:34:41;23.92;;;13.60;;
76357;SDS011;65185;21.060;105.826;2023-07-13T03:37:07;21.77;;;14.07;;
76357;SDS011;65185;21.060;105.826;2023-07-13T03:39:34;24.98;;;14.40;;
76357;SDS011;65185;21.060;105.826;2023-07-13T03:42:00;25.50;;;14.60;;
76357;SDS011;65185;21.060;105.826;2023-07-13T03:44:27;23.48;;;12.80;;
76357;SDS011;65185;21.060;105.826;2023-07-13T03:46:53;23.17;;;13.00;;
76357;SDS011;65185;21.060;105.826;2023-07-13T03:49:20;20.88;;;13.05;;
76357;SDS011;65185;21.060;105.826;2023-07-13T03:51:46;20.92;;;12.07;;
76357;SDS011;65185;21.060;105.826;2023-07-13T03:54:13;20.40;;;11.65;;
76357;SDS011;65185;21.060;105.826;2023-07-13T03:56:39;21.30;;;11.10;;
76357;SDS011;65185;21.060;105.826;2023-07-13T03:59:05;15.63;;;9.25;;
76357;SDS011;65185;21.060;105.826;2023-07-13T04:01:32;16.95;;;9.77;;
76357;SDS011;65185;21.060;105.826;2023-07-13T04:03:59;13.77;;;9.07;;
76357;SDS011;65185;21.060;105.826;2023-07-13T04:06:27;16.83;;;10.38;;
76357;SDS011;65185;21.060;105.826;2023-07-13T04:08:55;20.20;;;10.25;;
76357;SDS011;65185;21.060;105.826;2023-07-13T04:13:51;16.25;;;9.43;;
76357;SDS011;65185;21.060;105.826;2023-07-13T04:16:19;16.95;;;9.45;;
76357;SDS011;65185;21.060;105.826;2023-07-13T04:18:46;19.48;;;9.38;;
76357;SDS011;65185;21.060;105.826;2023-07-13T04:21:13;15.50;;;9.43;;
76357;SDS011;65185;21.060;105.826;2023-07-13T04:23:41;15.68;;;10.23;;
76357;SDS011;65185;21.060;105.826;2023-07-13T04:26:10;21.48;;;10.55;;
76357;SDS011;65185;21.060;105.826;2023-07-13T04:28:37;14.73;;;8.75;;
76357;SDS011;65185;21.060;105.826;2023-07-13T04:31:03;13.52;;;8.82;;
76357;SDS011;65185;21.060;105.826;2023-07-13T04:33:30;14.73;;;8.40;;
76357;SDS011;65185;21.060;105.826;2023-07-13T04:35:57;13.32;;;8.23;;
76357;SDS011;65185;21.060;105.826;2023-07-13T04:38:26;13.68;;;8.55;;
76357;SDS011;65185;21.060;105.826;2023-07-13T04:40:58;15.52;;;8.02;;
76357;SDS011;65185;21.060;105.826;2023-07-13T04:43:26;12.32;;;7.55;;
76357;SDS011;65185;21.060;105.826;2023-07-13T04:45:54;13.35;;;7.22;;
76357;SDS011;65185;21.060;105.826;2023-07-13T04:48:20;12.20;;;6.65;;
76357;SDS011;65185;21.060;105.826;2023-07-13T04:50:47;12.23;;;6.75;;
76357;SDS011;65185;21.060;105.826;2023-07-13T04:53:19;15.98;;;7.03;;
76357;SDS011;65185;21.060;105.826;2023-07-13T04:55:45;12.93;;;6.85;;
76357;SDS011;65185;21.060;105.826;2023-07-13T04:58:12;10.98;;;6.65;;
76357;SDS011;65185;21.060;105.826;2023-07-13T05:00:38;15.30;;;8.32;;
76357;SDS011;65185;21.060;105.826;2023-07-13T05:03:05;13.60;;;8.30;;
76357;SDS011;65185;21.060;105.826;2023-07-13T05:05:32;13.23;;;7.68;;
76357;SDS011;65185;21.060;105.826;2023-07-13T05:07:59;16.23;;;8.27;;
76357;SDS011;65185;21.060;105.826;2023-07-13T05:10:26;13.57;;;7.60;;
76357;SDS011;65185;21.060;105.826;2023-07-13T05:12:52;14.80;;;7.50;;
76357;SDS011;65185;21.060;105.826;2023-07-13T05:15:20;16.35;;;8.73;;
76357;SDS011;65185;21.060;105.826;2023-07-13T05:17:48;13.20;;;8.13;;
76357;SDS011;65185;21.060;105.826;2023-07-13T05:20:15;14.82;;;7.95;;
76357;SDS011;65185;21.060;105.826;2023-07-13T05:22:43;15.85;;;9.10;;
76357;SDS011;65185;21.060;105.826;2023-07-13T05:27:38;17.90;;;8.43;;
76357;SDS011;65185;21.060;105.826;2023-07-13T05:30:05;14.75;;;7.93;;
76357;SDS011;65185;21.060;105.826;2023-07-13T05:32:36;14.27;;;7.22;;
76357;SDS011;65185;21.060;105.826;2023-07-13T05:35:02;12.10;;;6.93;;
76357;SDS011;65185;21.060;105.826;2023-07-13T05:37:29;11.68;;;6.90;;
76357;SDS011;65185;21.060;105.826;2023-07-13T05:39:56;13.27;;;7.82;;
76357;SDS011;65185;21.060;105.826;2023-07-13T05:42:22;10.55;;;6.20;;
76357;SDS011;65185;21.060;105.826;2023-07-13T05:44:48;15.52;;;6.32;;
76357;SDS011;65185;21.060;105.826;2023-07-13T05:47:15;11.68;;;5.72;;
76357;SDS011;65185;21.060;105.826;2023-07-13T05:49:41;9.98;;;5.47;;
76357;SDS011;65185;21.060;105.826;2023-07-13T05:52:15;12.50;;;6.28;;
76357;SDS011;65185;21.060;105.826;2023-07-13T05:54:41;9.10;;;5.22;;
76357;SDS011;65185;21.060;105.826;2023-07-13T05:57:07;12.20;;;5.88;;
76357;SDS011;65185;21.060;105.826;2023-07-13T05:59:35;12.18;;;5.57;;
76357;SDS011;65185;21.060;105.826;2023-07-13T06:02:02;9.93;;;5.25;;
76357;SDS011;65185;21.060;105.826;2023-07-13T06:04:29;12.48;;;5.30;;
76357;SDS011;65185;21.060;105.826;2023-07-13T06:06:55;10.55;;;5.47;;
76357;SDS011;65185;21.060;105.826;2023-07-13T06:09:22;8.88;;;5.05;;
76357;SDS011;65185;21.060;105.826;2023-07-13T06:11:48;10.00;;;5.22;;
76357;SDS011;65185;21.060;105.826;2023-07-13T06:14:14;10.43;;;4.97;;
76357;SDS011;65185;21.060;105.826;2023-07-13T06:16:41;10.55;;;5.03;;
76357;SDS011;65185;21.060;105.826;2023-07-13T06:19:07;10.82;;;5.40;;
76357;SDS011;65185;21.060;105.826;2023-07-13T06:21:34;10.48;;;5.32;;
76357;SDS011;65185;21.060;105.826;2023-07-13T06:24:00;13.60;;;5.22;;
76357;SDS011;65185;21.060;105.826;2023-07-13T06:26:27;9.15;;;5.38;;
76357;SDS011;65185;21.060;105.826;2023-07-13T06:28:53;11.25;;;4.97;;
76357;SDS011;65185;21.060;105.826;2023-07-13T06:31:20;10.18;;;5.13;;
76357;SDS011;65185;21.060;105.826;2023-07-13T06:33:46;9.50;;;5.00;;
76357;SDS011;65185;21.060;105.826;2023-07-13T06:36:13;10.40;;;5.00;;
76357;SDS011;65185;21.060;105.826;2023-07-13T06:38:40;11.48;;;4.32;;
76357;SDS011;65185;21.060;105.826;2023-07-13T06:41:07;11.15;;;4.45;;
76357;SDS011;65185;21.060;105.826;2023-07-13T06:43:34;8.43;;;4.53;;
76357;SDS011;65185;21.060;105.826;2023-07-13T06:46:00;9.40;;;4.45;;
76357;SDS011;65185;21.060;105.826;2023-07-13T06:48:27;10.13;;;4.80;;
76357;SDS011;65185;21.060;105.826;2023-07-13T06:50:53;8.60;;;4.65;;
76357;SDS011;65185;21.060;105.826;2023-07-13T06:53:20;11.38;;;4.95;;
76357;SDS011;65185;21.060;105.826;2023-07-13T06:55:47;9.50;;;4.57;;
76357;SDS011;65185;21.060;105.826;2023-07-13T06:58:15;10.75;;;4.72;;
76357;SDS011;65185;21.060;105.826;2023-07-13T07:00:42;9.60;;;4.75;;
76357;SDS011;65185;21.060;105.826;2023-07-13T07:03:09;9.35;;;4.50;;
76357;SDS011;65185;21.060;105.826;2023-07-13T07:05:35;8.45;;;4.22;;
76357;SDS011;65185;21.060;105.826;2023-07-13T07:08:02;9.65;;;4.50;;
76357;SDS011;65185;21.060;105.826;2023-07-13T07:10:29;9.55;;;4.63;;
76357;SDS011;65185;21.060;105.826;2023-07-13T07:12:57;12.45;;;4.53;;
76357;SDS011;65185;21.060;105.826;2023-07-13T07:15:23;10.05;;;4.25;;
76357;SDS011;65185;21.060;105.826;2023-07-13T07:17:50;8.15;;;4.22;;
76357;SDS011;65185;21.060;105.826;2023-07-13T07:20:16;7.85;;;4.28;;
76357;SDS011;65185;21.060;105.826;2023-07-13T07:22:43;9.10;;;4.75;;
76357;SDS011;65185;21.060;105.826;2023-07-13T07:25:09;11.40;;;4.57;;
76357;SDS011;65185;21.060;105.826;2023-07-13T07:27:36;9.25;;;4.30;;
76357;SDS011;65185;21.060;105.826;2023-07-13T07:30:02;10.20;;;4.03;;
76357;SDS011;65185;21.060;105.826;2023-07-13T07:32:30;8.88;;;4.15;;
76357;SDS011;65185;21.060;105.826;2023-07-13T07:34:57;9.50;;;3.90;;
76357;SDS011;65185;21.060;105.826;2023-07-13T07:37:24;8.65;;;4.10;;
76357;SDS011;65185;21.060;105.826;2023-07-13T07:39:50;9.88;;;4.20;;
76357;SDS011;65185;21.060;105.826;2023-07-13T07:42:17;7.90;;;3.83;;
76357;SDS011;65185;21.060;105.826;2023-07-13T07:44:43;7.93;;;3.97;;
76357;SDS011;65185;21.060;105.826;2023-07-13T07:47:10;8.90;;;3.72;;
76357;SDS011;65185;21.060;105.826;2023-07-13T07:49:36;8.93;;;4.13;;
76357;SDS011;65185;21.060;105.826;2023-07-13T07:52:03;10.15;;;4.32;;
76357;SDS011;65185;21.060;105.826;2023-07-13T07:54:30;9.63;;;4.40;;
76357;SDS011;65185;21.060;105.826;2023-07-13T07:56:56;10.45;;;4.68;;
76357;SDS011;65185;21.060;105.826;2023-07-13T07:59:23;8.40;;;4.13;;
76357;SDS011;65185;21.060;105.826;2023-07-13T08:01:49;9.82;;;4.40;;
76357;SDS011;65185;21.060;105.826;2023-07-13T08:04:16;8.55;;;4.80;;
76357;SDS011;65185;21.060;105.826;2023-07-13T08:06:43;9.48;;;4.78;;
76357;SDS011;65185;21.060;105.826;2023-07-13T08:09:09;8.95;;;4.75;;
76357;SDS011;65185;21.060;105.826;2023-07-13T08:11:35;9.25;;;4.35;;
76357;SDS011;65185;21.060;105.826;2023-07-13T08:14:02;7.53;;;4.40;;
76357;SDS011;65185;21.060;105.826;2023-07-13T08:16:29;8.52;;;4.47;;
76357;SDS011;65185;21.060;105.826;2023-07-13T08:18:58;8.50;;;4.75;;
76357;SDS011;65185;21.060;105.826;2023-07-13T08:21:24;8.70;;;4.47;;
76357;SDS011;65185;21.060;105.826;2023-07-13T08:23:51;9.15;;;4.35;;
76357;SDS011;65185;21.060;105.826;2023-07-13T08:26:17;10.73;;;4.63;;
76357;SDS011;65185;21.060;105.826;2023-07-13T08:28:44;14.27;;;4.82;;
76357;SDS011;65185;21.060;105.826;2023-07-13T08:31:10;8.52;;;4.65;;
76357;SDS011;65185;21.060;105.826;2023-07-13T08:33:37;10.05;;;4.32;;
76357;SDS011;65185;21.060;105.826;2023-07-13T08:36:03;11.25;;;4.57;;
76357;SDS011;65185;21.060;105.826;2023-07-13T08:38:35;8.45;;;4.68;;
76357;SDS011;65185;21.060;105.826;2023-07-13T08:41:09;8.50;;;4.72;;
76357;SDS011;65185;21.060;105.826;2023-07-13T08:43:41;10.02;;;5.03;;
76357;SDS011;65185;21.060;105.826;2023-07-13T08:48:56;8.57;;;4.90;;
76357;SDS011;65185;21.060;105.826;2023-07-13T08:56:55;10.32;;;4.78;;
76357;SDS011;65185;21.060;105.826;2023-07-13T08:59:24;10.52;;;5.47;;
76357;SDS011;65185;21.060;105.826;2023-07-13T09:04:42;11.07;;;4.85;;
76357;SDS011;65185;21.060;105.826;2023-07-13T09:15:38;9.73;;;5.25;;
76357;SDS011;65185;21.060;105.826;2023-07-13T09:18:33;11.90;;;5.88;;
76357;SDS011;65185;21.060;105.826;2023-07-13T09:21:10;11.98;;;6.40;;
76357;SDS011;65185;21.060;105.826;2023-07-13T09:23:38;14.55;;;6.65;;
76357;SDS011;65185;21.060;105.826;2023-07-13T09:26:13;11.52;;;6.82;;
76357;SDS011;65185;21.060;105.826;2023-07-13T09:28:44;13.35;;;6.40;;
76357;SDS011;65185;21.060;105.826;2023-07-13T09:34:04;12.65;;;6.25;;
76357;SDS011;65185;21.060;105.826;2023-07-13T09:36:35;12.38;;;6.57;;
76357;SDS011;65185;21.060;105.826;2023-07-13T09:44:18;14.02;;;6.50;;
76357;SDS011;65185;21.060;105.826;2023-07-13T09:46:56;15.35;;;7.13;;
76357;SDS011;65185;21.060;105.826;2023-07-13T09:49:26;11.35;;;6.70;;
76357;SDS011;65185;21.060;105.826;2023-07-13T09:52:03;12.18;;;6.90;;
76357;SDS011;65185;21.060;105.826;2023-07-13T09:54:35;15.30;;;7.03;;
76357;SDS011;65185;21.060;105.826;2023-07-13T09:57:03;14.40;;;7.45;;
76357;SDS011;65185;21.060;105.826;2023-07-13T09:59:51;14.10;;;7.82;;
76357;SDS011;65185;21.060;105.826;2023-07-13T10:02:26;15.10;;;8.85;;
76357;SDS011;65185;21.060;105.826;2023-07-13T10:04:59;14.63;;;8.20;;
76357;SDS011;65185;21.060;105.826;2023-07-13T10:07:41;13.13;;;8.07;;
76357;SDS011;65185;21.060;105.826;2023-07-13T10:10:17;15.93;;;9.18;;
76357;SDS011;65185;21.060;105.826;2023-07-13T10:12:48;15.57;;;9.88;;
76357;SDS011;65185;21.060;105.826;2023-07-13T10:15:18;14.27;;;9.55;;
76357;SDS011;65185;21.060;105.826;2023-07-13T10:17:46;20.02;;;10.15;;
76357;SDS011;65185;21.060;105.826;2023-07-13T10:20:14;16.98;;;10.40;;
76357;SDS011;65185;21.060;105.826;2023-07-13T10:22:50;15.38;;;9.48;;
76357;SDS011;65185;21.060;105.826;2023-07-13T10:25:39;17.00;;;9.90;;
76357;SDS011;65185;21.060;105.826;2023-07-13T10:30:49;17.83;;;10.55;;
76357;SDS011;65185;21.060;105.826;2023-07-13T10:33:18;18.83;;;10.93;;
76357;SDS011;65185;21.060;105.826;2023-07-13T10:35:46;16.40;;;10.63;;
76357;SDS011;65185;21.060;105.826;2023-07-13T10:38:33;16.75;;;10.93;;
76357;SDS011;65185;21.060;105.826;2023-07-13T10:41:03;16.23;;;11.15;;
76357;SDS011;65185;21.060;105.826;2023-07-13T10:43:41;17.42;;;11.20;;
76357;SDS011;65185;21.060;105.826;2023-07-13T10:46:15;16.20;;;10.68;;
76357;SDS011;65185;21.060;105.826;2023-07-13T10:48:46;17.80;;;11.13;;
76357;SDS011;65185;21.060;105.826;2023-07-13T10:51:17;20.60;;;11.88;;
76357;SDS011;65185;21.060;105.826;2023-07-13T10:54:10;17.20;;;12.55;;
76357;SDS011;65185;21.060;105.826;2023-07-13T10:56:43;20.20;;;12.75;;
76357;SDS011;65185;21.060;105.826;2023-07-13T10:59:18;21.60;;;13.65;;
76357;SDS011;65185;21.060;105.826;2023-07-13T11:01:56;21.52;;;13.18;;
76357;SDS011;65185;21.060;105.826;2023-07-13T11:04:39;22.50;;;13.73;;
76357;SDS011;65185;21.060;105.826;2023-07-13T11:07:18;20.65;;;12.90;;
76357;SDS011;65185;21.060;105.826;2023-07-13T11:09:49;19.73;;;14.32;;
76357;SDS011;65185;21.060;105.826;2023-07-13T11:22:43;27.92;;;17.23;;
76357;SDS011;65185;21.060;105.826;2023-07-13T11:28:02;28.95;;;18.23;;
76357;SDS011;65185;21.060;105.826;2023-07-13T11:30:37;30.40;;;19.45;;
76357;SDS011;65185;21.060;105.826;2023-07-13T11:36:06;31.98;;;20.35;;
76357;SDS011;65185;21.060;105.826;2023-07-13T11:38:43;31.10;;;20.50;;
76357;SDS011;65185;21.060;105.826;2023-07-13T11:43:44;37.80;;;23.67;;
76357;SDS011;65185;21.060;105.826;2023-07-13T11:48:41;42.53;;;23.90;;
76357;SDS011;65185;21.060;105.826;2023-07-13T11:51:14;39.28;;;24.08;;
76357;SDS011;65185;21.060;105.826;2023-07-13T11:53:53;36.92;;;23.30;;
76357;SDS011;65185;21.060;105.826;2023-07-13T11:56:22;31.50;;;22.83;;
76357;SDS011;65185;21.060;105.826;2023-07-13T11:58:51;36.05;;;22.05;;
76357;SDS011;65185;21.060;105.826;2023-07-13T12:01:23;30.33;;;20.70;;
76357;SDS011;65185;21.060;105.826;2023-07-13T12:04:01;29.20;;;20.92;;
76357;SDS011;65185;21.060;105.826;2023-07-13T12:06:33;33.83;;;23.30;;
76357;SDS011;65185;21.060;105.826;2023-07-13T12:09:13;36.22;;;26.02;;
76357;SDS011;65185;21.060;105.826;2023-07-13T12:11:43;37.70;;;26.20;;
76357;SDS011;65185;21.060;105.826;2023-07-13T12:14:16;35.72;;;25.50;;
76357;SDS011;65185;21.060;105.826;2023-07-13T12:16:44;47.40;;;25.45;;
76357;SDS011;65185;21.060;105.826;2023-07-13T12:19:28;33.88;;;22.23;;
76357;SDS011;65185;21.060;105.826;2023-07-13T12:21:56;37.08;;;22.50;;
76357;SDS011;65185;21.060;105.826;2023-07-13T12:24:23;35.63;;;21.88;;
76357;SDS011;65185;21.060;105.826;2023-07-13T12:26:58;32.00;;;20.73;;
76357;SDS011;65185;21.060;105.826;2023-07-13T12:29:26;31.67;;;19.70;;
76357;SDS011;65185;21.060;105.826;2023-07-13T12:31:53;34.05;;;21.17;;
76357;SDS011;65185;21.060;105.826;2023-07-13T12:34:22;33.83;;;19.58;;
76357;SDS011;65185;21.060;105.826;2023-07-13T12:36:58;34.17;;;18.88;;
76357;SDS011;65185;21.060;105.826;2023-07-13T12:39:45;37.65;;;19.90;;
76357;SDS011;65185;21.060;105.826;2023-07-13T12:44:40;40.30;;;21.35;;
76357;SDS011;65185;21.060;105.826;2023-07-13T12:47:09;38.47;;;22.35;;
76357;SDS011;65185;21.060;105.826;2023-07-13T12:49:42;38.75;;;22.85;;
76357;SDS011;65185;21.060;105.826;2023-07-13T12:52:17;51.08;;;27.40;;
76357;SDS011;65185;21.060;105.826;2023-07-13T12:54:54;41.85;;;25.95;;
76357;SDS011;65185;21.060;105.826;2023-07-13T12:57:38;39.33;;;24.40;;
76357;SDS011;65185;21.060;105.826;2023-07-13T13:00:11;41.80;;;23.40;;
76357;SDS011;65185;21.060;105.826;2023-07-13T13:05:22;43.13;;;22.38;;
76357;SDS011;65185;21.060;105.826;2023-07-13T13:07:51;37.40;;;21.67;;
76357;SDS011;65185;21.060;105.826;2023-07-13T13:10:17;39.05;;;21.08;;
76357;SDS011;65185;21.060;105.826;2023-07-13T13:12:44;39.53;;;22.70;;
76357;SDS011;65185;21.060;105.826;2023-07-13T13:15:11;32.53;;;20.92;;
76357;SDS011;65185;21.060;105.826;2023-07-13T13:17:37;29.90;;;18.60;;
76357;SDS011;65185;21.060;105.826;2023-07-13T13:20:13;33.28;;;18.70;;
76357;SDS011;65185;21.060;105.826;2023-07-13T13:22:48;30.05;;;16.88;;
76357;SDS011;65185;21.060;105.826;2023-07-13T13:25:14;27.58;;;15.55;;
76357;SDS011;65185;21.060;105.826;2023-07-13T13:27:41;27.38;;;14.15;;
76357;SDS011;65185;21.060;105.826;2023-07-13T13:30:12;25.73;;;14.45;;
76357;SDS011;65185;21.060;105.826;2023-07-13T13:32:45;28.60;;;14.45;;
76357;SDS011;65185;21.060;105.826;2023-07-13T13:35:14;23.55;;;13.27;;
76357;SDS011;65185;21.060;105.826;2023-07-13T13:37:41;25.25;;;13.27;;
76357;SDS011;65185;21.060;105.826;2023-07-13T13:40:15;26.55;;;13.63;;
76357;SDS011;65185;21.060;105.826;2023-07-13T13:42:46;25.58;;;13.43;;
76357;SDS011;65185;21.060;105.826;2023-07-13T13:45:13;25.05;;;14.00;;
76357;SDS011;65185;21.060;105.826;2023-07-13T13:47:41;28.65;;;13.90;;
76357;SDS011;65185;21.060;105.826;2023-07-13T13:50:12;25.23;;;13.85;;
76357;SDS011;65185;21.060;105.826;2023-07-13T13:52:41;27.67;;;14.63;;
76357;SDS011;65185;21.060;105.826;2023-07-13T13:55:12;23.98;;;12.57;;
76357;SDS011;65185;21.060;105.826;2023-07-13T13:57:40;24.02;;;11.55;;
76357;SDS011;65185;21.060;105.826;2023-07-13T14:00:08;23.42;;;11.38;;
76357;SDS011;65185;21.060;105.826;2023-07-13T14:02:44;22.88;;;11.65;;
76357;SDS011;65185;21.060;105.826;2023-07-13T14:05:23;24.15;;;10.70;;
76357;SDS011;65185;21.060;105.826;2023-07-13T14:07:51;21.35;;;10.75;;
76357;SDS011;65185;21.060;105.826;2023-07-13T14:10:22;20.08;;;10.50;;
76357;SDS011;65185;21.060;105.826;2023-07-13T14:12:52;21.63;;;10.85;;
76357;SDS011;65185;21.060;105.826;2023-07-13T14:15:26;18.77;;;9.95;;
76357;SDS011;65185;21.060;105.826;2023-07-13T14:17:54;22.60;;;9.63;;
76357;SDS011;65185;21.060;105.826;2023-07-13T14:20:21;21.23;;;10.20;;
76357;SDS011;65185;21.060;105.826;2023-07-13T14:22:49;19.83;;;10.50;;
76357;SDS011;65185;21.060;105.826;2023-07-13T14:25:17;19.83;;;10.73;;
76357;SDS011;65185;21.060;105.826;2023-07-13T14:27:45;18.80;;;10.02;;
76357;SDS011;65185;21.060;105.826;2023-07-13T14:30:16;20.38;;;9.90;;
76357;SDS011;65185;21.060;105.826;2023-07-13T14:32:44;20.35;;;10.20;;
76357;SDS011;65185;21.060;105.826;2023-07-13T14:35:12;20.63;;;11.02;;
76357;SDS011;65185;21.060;105.826;2023-07-13T14:37:40;20.27;;;11.48;;
76357;SDS011;65185;21.060;105.826;2023-07-13T14:40:14;21.40;;;11.70;;
76357;SDS011;65185;21.060;105.826;2023-07-13T14:42:50;18.75;;;11.30;;
76357;SDS011;65185;21.060;105.826;2023-07-13T14:45:17;18.38;;;10.70;;
76357;SDS011;65185;21.060;105.826;2023-07-13T14:47:45;22.25;;;12.00;;
76357;SDS011;65185;21.060;105.826;2023-07-13T14:50:25;18.80;;;10.30;;
76357;SDS011;65185;21.060;105.826;2023-07-13T14:53:00;22.98;;;11.15;;
76357;SDS011;65185;21.060;105.826;2023-07-13T14:55:26;18.30;;;10.93;;
76357;SDS011;65185;21.060;105.826;2023-07-13T14:57:53;24.45;;;11.82;;
76357;SDS011;65185;21.060;105.826;2023-07-13T15:00:20;18.48;;;11.85;;
76357;SDS011;65185;21.060;105.826;2023-07-13T15:02:51;23.00;;;11.82;;
76357;SDS011;65185;21.060;105.826;2023-07-13T15:05:21;20.23;;;11.90;;
76357;SDS011;65185;21.060;105.826;2023-07-13T15:07:53;23.15;;;12.15;;
76357;SDS011;65185;21.060;105.826;2023-07-13T15:10:20;24.80;;;13.15;;
76357;SDS011;65185;21.060;105.826;2023-07-13T15:12:51;21.33;;;12.02;;
76357;SDS011;65185;21.060;105.826;2023-07-13T15:15:19;27.42;;;14.07;;
76357;SDS011;65185;21.060;105.826;2023-07-13T15:17:46;25.45;;;14.18;;
76357;SDS011;65185;21.060;105.826;2023-07-13T15:20:18;22.48;;;12.65;;